Time;durP1;ratioP1;P1;durP2;ratioP2;P2;SDS_P1;SDS_P2;PMS_P1;PMS_P2;Temp;Humidity;BMP_temperature;BMP_pressure;BME280_temperature;BME280_humidity;BME280_pressure;Samples;Min_cycle;Max_cycle;Signal;HPM_P1;HPM_P2
2022/02/15 00:00:43;;;;;;;6.65;2.75;;;7.20;99.90;;;;;;5031939;28;20128;-68
2022/02/15 00:03:10;;;;;;;7.30;3.38;;;7.30;99.90;;;;;;5031980;28;20137;-68
2022/02/15 00:05:37;;;;;;;5.78;2.53;;;7.20;99.90;;;;;;5031717;28;20045;-68
2022/02/15 00:08:05;;;;;;;6.47;2.67;;;7.20;99.90;;;;;;5031776;28;20128;-68
2022/02/15 00:10:32;;;;;;;7.93;3.22;;;7.30;99.90;;;;;;5032034;28;20112;-68
2022/02/15 00:13:02;;;;;;;8.68;2.75;;;7.20;99.90;;;;;;5032223;28;20092;-68
2022/02/15 00:15:29;;;;;;;10.27;3.55;;;7.20;99.90;;;;;;5031744;28;20053;-68
2022/02/15 00:17:56;;;;;;;11.55;4.25;;;7.20;99.90;;;;;;5032153;28;20089;-67
2022/02/15 00:20:23;;;;;;;11.15;4.22;;;7.20;99.90;;;;;;5031576;28;20484;-68
2022/02/15 00:22:50;;;;;;;12.07;4.00;;;7.10;99.90;;;;;;5031606;28;20132;-68
2022/02/15 00:25:20;;;;;;;9.45;4.55;;;7.10;99.90;;;;;;5031356;28;20054;-68
2022/02/15 00:27:48;;;;;;;11.15;4.53;;;7.10;99.90;;;;;;5031807;28;20257;-68
2022/02/15 00:30:15;;;;;;;11.80;4.95;;;7.00;99.90;;;;;;5031770;28;20049;-68
2022/02/15 00:32:42;;;;;;;8.90;3.88;;;7.00;99.90;;;;;;5034260;28;20080;-67
2022/02/15 00:35:09;;;;;;;7.93;3.88;;;7.00;99.90;;;;;;5035285;28;20104;-68
2022/02/15 00:37:36;;;;;;;12.20;3.83;;;7.00;99.90;;;;;;5035629;28;20128;-68
2022/02/15 00:40:04;;;;;;;10.50;3.88;;;7.00;99.90;;;;;;5035309;28;20514;-68
2022/02/15 00:42:33;;;;;;;7.90;3.03;;;7.00;99.90;;;;;;5035380;28;20096;-67
2022/02/15 00:45:00;;;;;;;9.43;3.67;;;7.00;99.90;;;;;;5035145;28;20046;-68
2022/02/15 00:47:27;;;;;;;8.95;4.00;;;6.90;99.90;;;;;;5035265;28;20053;-68
2022/02/15 00:49:53;;;;;;;9.90;4.05;;;6.90;99.90;;;;;;5035051;28;20132;-68
2022/02/15 00:52:20;;;;;;;9.82;4.43;;;6.90;99.90;;;;;;5035049;28;20053;-68
2022/02/15 00:54:47;;;;;;;12.85;4.47;;;6.90;99.90;;;;;;5034625;28;20099;-68
2022/02/15 00:57:15;;;;;;;10.18;4.15;;;6.90;99.90;;;;;;5035016;28;20077;-68
2022/02/15 00:59:44;;;;;;;8.40;4.30;;;6.90;99.90;;;;;;5035218;28;20061;-68
2022/02/15 01:02:11;;;;;;;9.52;4.28;;;6.90;99.90;;;;;;5034963;28;20081;-68
2022/02/15 01:04:37;;;;;;;9.68;4.53;;;6.90;99.90;;;;;;5034526;28;20045;-68
2022/02/15 01:07:05;;;;;;;8.57;4.45;;;6.90;99.90;;;;;;5034606;28;20053;-68
2022/02/15 01:09:32;;;;;;;8.25;4.03;;;6.90;99.90;;;;;;5034588;28;20092;-68
2022/02/15 01:11:59;;;;;;;12.95;4.85;;;6.80;99.90;;;;;;5034815;28;20137;-68
2022/02/15 01:14:26;;;;;;;12.50;4.43;;;6.80;99.90;;;;;;5034384;28;20132;-68
2022/02/15 01:16:54;;;;;;;15.63;5.03;;;6.80;99.90;;;;;;5034257;28;20056;-68
2022/02/15 01:19:21;;;;;;;10.38;4.60;;;6.80;99.90;;;;;;5034444;28;20130;-68
2022/02/15 01:21:48;;;;;;;10.70;5.03;;;6.80;99.90;;;;;;5034250;28;20049;-68
2022/02/15 01:24:15;;;;;;;8.95;4.60;;;6.80;99.90;;;;;;5034251;28;20128;-68
2022/02/15 01:26:42;;;;;;;9.20;4.63;;;6.80;99.90;;;;;;5034038;28;20081;-68
2022/02/15 01:29:09;;;;;;;10.35;4.50;;;6.70;99.90;;;;;;5034207;28;20134;-68
2022/02/15 01:31:36;;;;;;;12.23;4.68;;;6.70;99.90;;;;;;5034106;28;20085;-68
2022/02/15 01:34:04;;;;;;;8.88;4.40;;;6.70;99.90;;;;;;5033994;28;20061;-68
2022/02/15 01:36:31;;;;;;;13.23;5.50;;;6.70;99.90;;;;;;5033833;28;20136;-68
2022/02/15 01:38:58;;;;;;;14.88;4.90;;;6.60;99.90;;;;;;5034040;28;20136;-68
2022/02/15 01:41:25;;;;;;;9.38;4.78;;;6.60;99.90;;;;;;5034002;28;20053;-68
2022/02/15 01:43:52;;;;;;;11.75;5.53;;;6.60;99.90;;;;;;5033709;28;20087;-68
2022/02/15 01:46:19;;;;;;;10.25;5.00;;;6.60;99.90;;;;;;5033709;28;20588;-68
2022/02/15 01:48:47;;;;;;;10.05;5.32;;;6.60;99.90;;;;;;5033872;28;20091;-68
2022/02/15 01:51:15;;;;;;;9.93;4.60;;;6.60;99.90;;;;;;5034228;28;20164;-68
2022/02/15 01:53:43;;;;;;;10.25;4.75;;;6.60;99.90;;;;;;5034047;28;20109;-68
2022/02/15 01:56:11;;;;;;;10.80;5.15;;;6.60;99.90;;;;;;5033829;28;20137;-68
2022/02/15 01:58:39;;;;;;;10.77;5.20;;;6.50;99.90;;;;;;5033890;28;20474;-68
2022/02/15 02:01:05;;;;;;;10.68;4.95;;;6.50;99.90;;;;;;5033819;28;20565;-68
2022/02/15 02:03:32;;;;;;;12.55;6.13;;;6.50;99.90;;;;;;5033519;28;20484;-68
2022/02/15 02:05:59;;;;;;;12.18;5.18;;;6.50;99.90;;;;;;5033098;28;20508;-68
2022/02/15 02:08:30;;;;;;;12.02;6.20;;;6.50;99.90;;;;;;5033529;28;20092;-68
2022/02/15 02:10:58;;;;;;;12.65;5.32;;;6.50;99.90;;;;;;5034035;28;20061;-68
2022/02/15 02:13:25;;;;;;;11.43;5.25;;;6.50;99.90;;;;;;5033590;28;20065;-68
2022/02/15 02:15:52;;;;;;;11.18;5.93;;;6.50;99.90;;;;;;5033059;28;20500;-68
2022/02/15 02:18:19;;;;;;;11.82;6.05;;;6.60;99.90;;;;;;5033205;28;20132;-68
2022/02/15 02:20:46;;;;;;;12.23;5.60;;;6.60;99.90;;;;;;5033405;28;20053;-68
2022/02/15 02:23:16;;;;;;;14.27;5.55;;;6.60;99.90;;;;;;5033061;28;20107;-68
2022/02/15 02:25:44;;;;;;;13.23;5.65;;;6.60;99.90;;;;;;5033093;28;20140;-68
2022/02/15 02:28:11;;;;;;;12.18;5.88;;;6.60;99.90;;;;;;5033220;28;20129;-68
2022/02/15 02:30:39;;;;;;;12.25;5.40;;;6.60;99.90;;;;;;5033147;28;20132;-68
2022/02/15 02:33:06;;;;;;;12.77;6.20;;;6.70;99.90;;;;;;5033310;28;20132;-68
2022/02/15 02:35:34;;;;;;;11.88;5.97;;;6.60;99.90;;;;;;5033001;28;20142;-68
2022/02/15 02:38:01;;;;;;;12.43;5.18;;;6.60;99.90;;;;;;5033049;28;20554;-68
2022/02/15 02:40:29;;;;;;;10.13;4.95;;;6.60;99.90;;;;;;5032952;28;20545;-68
2022/02/15 02:42:56;;;;;;;11.18;6.05;;;6.60;99.90;;;;;;5032894;28;20049;-68
2022/02/15 02:45:24;;;;;;;11.23;5.60;;;6.60;99.90;;;;;;5032453;28;20140;-68
2022/02/15 02:47:53;;;;;;;12.38;5.88;;;6.60;99.90;;;;;;5032794;28;20107;-68
2022/02/15 02:50:21;;;;;;;11.57;5.35;;;6.50;99.90;;;;;;5032702;28;20592;-68
2022/02/15 02:52:49;;;;;;;11.52;5.80;;;6.60;99.90;;;;;;5032590;28;20152;-68
2022/02/15 02:55:15;;;;;;;11.90;6.20;;;6.50;99.90;;;;;;5031841;28;20062;-68
2022/02/15 02:57:44;;;;;;;13.20;5.82;;;6.50;99.90;;;;;;5032373;28;20124;-68
2022/02/15 03:00:14;;;;;;;11.63;5.70;;;6.50;99.90;;;;;;5032515;28;20064;-68
2022/02/15 03:02:41;;;;;;;13.20;6.38;;;6.50;99.90;;;;;;5032701;28;20091;-68
2022/02/15 03:05:08;;;;;;;14.38;6.72;;;6.40;99.90;;;;;;5032321;28;20055;-68
2022/02/15 03:07:35;;;;;;;10.85;6.20;;;6.40;99.90;;;;;;5032448;28;20141;-68
2022/02/15 03:10:02;;;;;;;11.88;6.18;;;6.30;99.90;;;;;;5032418;28;20045;-68
2022/02/15 03:12:29;;;;;;;16.00;7.15;;;6.30;99.90;;;;;;5032305;28;20136;-68
2022/02/15 03:14:57;;;;;;;15.15;8.13;;;6.20;99.90;;;;;;5031903;28;20160;-68
2022/02/15 03:17:24;;;;;;;16.05;7.40;;;6.20;99.90;;;;;;5032058;28;20088;-68
2022/02/15 03:19:51;;;;;;;16.77;8.10;;;6.30;99.90;;;;;;5032038;28;20132;-68
2022/02/15 03:22:19;;;;;;;18.98;8.77;;;6.30;99.90;;;;;;5032149;28;20092;-68
2022/02/15 03:24:47;;;;;;;17.50;8.70;;;6.30;99.90;;;;;;5031695;28;20060;-68
2022/02/15 03:27:13;;;;;;;18.23;10.07;;;6.30;99.90;;;;;;5032302;28;20140;-68
2022/02/15 03:29:40;;;;;;;17.92;9.43;;;6.30;99.90;;;;;;5031980;28;20045;-68
2022/02/15 03:32:09;;;;;;;19.50;10.13;;;6.30;99.90;;;;;;5031975;28;20128;-68
2022/02/15 03:34:36;;;;;;;18.15;9.23;;;6.30;99.90;;;;;;5042273;28;20111;-68
2022/02/15 03:37:03;;;;;;;21.30;9.52;;;6.20;99.90;;;;;;5043182;28;20092;-68
2022/02/15 03:39:30;;;;;;;19.05;9.43;;;6.20;99.90;;;;;;5051714;28;20528;-68
2022/02/15 03:44:41;;;;;;;15.75;7.72;;;6.30;99.90;;;;;;5051485;28;20056;-68
2022/02/15 03:47:10;;;;;;;14.98;8.10;;;6.30;99.90;;;;;;5051754;28;20136;-68
2022/02/15 03:49:37;;;;;;;19.20;8.25;;;6.30;99.90;;;;;;5051837;28;20195;-68
2022/02/15 03:52:04;;;;;;;15.27;8.57;;;6.30;99.90;;;;;;5052056;28;20198;-68
2022/02/15 03:54:31;;;;;;;19.35;8.65;;;6.30;99.90;;;;;;5051701;28;20143;-68
2022/02/15 03:56:58;;;;;;;15.55;8.13;;;6.30;99.90;;;;;;5051658;28;20087;-68
2022/02/15 03:59:25;;;;;;;17.48;8.82;;;6.30;99.90;;;;;;5051737;28;20140;-68
2022/02/15 04:01:52;;;;;;;16.45;8.38;;;6.30;99.90;;;;;;5047249;28;20432;-68
2022/02/15 04:04:20;;;;;;;17.50;9.05;;;6.30;99.90;;;;;;5051257;28;20068;-68
2022/02/15 04:06:47;;;;;;;17.30;9.20;;;6.30;99.90;;;;;;5043906;28;20080;-68
2022/02/15 04:09:14;;;;;;;16.77;8.32;;;6.30;99.90;;;;;;5058449;28;20081;-68
2022/02/15 04:11:41;;;;;;;19.02;8.88;;;6.30;99.90;;;;;;5047027;28;20135;-68
2022/02/15 04:14:08;;;;;;;19.92;9.00;;;6.30;99.90;;;;;;5055143;28;20129;-68
2022/02/15 04:16:36;;;;;;;18.17;8.68;;;6.20;99.90;;;;;;5055099;28;20473;-68
2022/02/15 04:19:03;;;;;;;16.83;8.60;;;6.20;99.90;;;;;;5053342;28;20049;-68
2022/02/15 04:21:32;;;;;;;16.08;8.57;;;6.20;99.90;;;;;;5041407;28;20088;-68
2022/02/15 04:23:59;;;;;;;17.38;8.90;;;6.20;99.90;;;;;;5055534;28;20124;-68
2022/02/15 04:26:26;;;;;;;15.65;8.07;;;6.20;99.90;;;;;;5055619;28;20099;-68
2022/02/15 04:28:53;;;;;;;16.63;8.63;;;6.20;99.90;;;;;;5055539;28;20049;-68
2022/02/15 04:31:20;;;;;;;19.27;8.35;;;6.20;99.90;;;;;;5055660;28;20144;-68
2022/02/15 04:33:48;;;;;;;17.60;8.23;;;6.20;99.90;;;;;;5055640;28;20132;-68
2022/02/15 04:36:15;;;;;;;17.02;8.88;;;6.20;99.90;;;;;;5055512;28;20497;-68
2022/02/15 04:38:43;;;;;;;16.63;9.00;;;6.10;99.90;;;;;;5055460;28;20140;-68
2022/02/15 04:41:10;;;;;;;17.92;8.80;;;6.10;99.90;;;;;;5055185;28;20132;-68
2022/02/15 04:43:37;;;;;;;18.40;10.10;;;6.10;99.90;;;;;;5055036;28;20598;-68
2022/02/15 04:46:04;;;;;;;18.25;9.02;;;6.00;99.90;;;;;;5055162;28;20160;-68
2022/02/15 04:48:31;;;;;;;19.50;9.25;;;5.90;99.90;;;;;;5055048;28;20088;-68
2022/02/15 04:50:58;;;;;;;18.77;9.35;;;5.90;99.90;;;;;;5054804;28;20132;-68
2022/02/15 04:53:25;;;;;;;20.08;9.43;;;5.80;99.90;;;;;;5055185;28;20132;-68
2022/02/15 04:55:53;;;;;;;18.80;9.07;;;5.80;99.90;;;;;;5054721;28;20483;-68
2022/02/15 04:58:20;;;;;;;19.77;9.80;;;5.70;99.90;;;;;;5054972;28;20143;-68
2022/02/15 05:00:49;;;;;;;21.23;10.23;;;5.60;99.90;;;;;;5054834;28;20053;-68
2022/02/15 05:03:16;;;;;;;20.45;9.98;;;5.60;99.90;;;;;;5054615;28;20060;-68
2022/02/15 05:05:43;;;;;;;19.17;9.77;;;5.50;99.90;;;;;;5054303;28;20519;-68
2022/02/15 05:08:09;;;;;;;21.42;11.18;;;5.50;99.90;;;;;;5054483;28;20059;-68
2022/02/15 05:10:37;;;;;;;23.80;11.55;;;5.40;99.90;;;;;;5054649;28;20140;-68
2022/02/15 05:13:08;;;;;;;22.90;11.65;;;5.40;99.90;;;;;;5054723;28;20143;-68
2022/02/15 05:15:36;;;;;;;25.15;12.07;;;5.40;99.90;;;;;;5054191;28;20136;-68
2022/02/15 05:18:04;;;;;;;24.20;12.35;;;5.40;99.90;;;;;;5053978;28;20045;-68
2022/02/15 05:20:31;;;;;;;24.50;12.38;;;5.40;99.90;;;;;;5054774;28;20481;-68
2022/02/15 05:22:57;;;;;;;28.27;11.57;;;5.40;99.90;;;;;;5054594;28;20049;-68
2022/02/15 05:25:25;;;;;;;24.42;12.25;;;5.30;99.90;;;;;;5053982;28;20116;-68
2022/02/15 05:27:53;;;;;;;23.10;11.43;;;5.30;99.90;;;;;;5054271;28;20588;-68
2022/02/15 05:30:22;;;;;;;24.98;11.50;;;5.30;99.90;;;;;;5054556;28;20083;-68
2022/02/15 05:32:49;;;;;;;25.77;12.77;;;5.20;99.90;;;;;;5054236;28;20140;-68
2022/02/15 05:35:16;;;;;;;28.08;13.35;;;5.20;99.90;;;;;;5053944;28;20143;-68
2022/02/15 05:37:43;;;;;;;26.05;11.90;;;5.20;99.90;;;;;;5054178;28;20499;-68
2022/02/15 05:40:12;;;;;;;30.75;12.93;;;5.20;99.90;;;;;;5054047;28;20051;-68
2022/02/15 05:42:38;;;;;;;28.23;13.97;;;5.10;99.90;;;;;;5054045;28;20049;-68
2022/02/15 05:45:06;;;;;;;26.50;13.30;;;5.10;99.90;;;;;;5053810;28;20075;-68
2022/02/15 05:47:35;;;;;;;24.73;11.38;;;5.10;99.90;;;;;;5054184;28;20458;-68
2022/02/15 05:52:46;;;;;;;21.55;11.00;;;5.10;99.90;;;;;;5054215;28;20377;-68
2022/02/15 05:55:14;;;;;;;21.77;11.38;;;5.20;99.90;;;;;;5053572;28;20048;-68
2022/02/15 05:57:42;;;;;;;21.45;11.07;;;5.20;99.90;;;;;;5054040;28;20064;-68
2022/02/15 06:00:11;;;;;;;22.50;10.93;;;5.20;99.90;;;;;;5056140;28;20135;-68
2022/02/15 06:02:39;;;;;;;19.70;10.70;;;5.20;99.90;;;;;;5054771;28;20052;-68
2022/02/15 06:05:07;;;;;;;18.75;10.30;;;5.20;99.90;;;;;;5053459;28;20051;-68
2022/02/15 06:07:34;;;;;;;19.75;10.23;;;5.30;99.90;;;;;;5053557;28;20049;-68
2022/02/15 06:10:01;;;;;;;17.83;9.90;;;5.20;99.90;;;;;;5053470;28;20136;-68
2022/02/15 06:12:28;;;;;;;22.52;10.77;;;5.20;99.90;;;;;;5053570;28;20115;-68
2022/02/15 06:14:54;;;;;;;20.33;10.43;;;5.10;99.90;;;;;;5053511;28;20464;-68
2022/02/15 06:17:21;;;;;;;20.40;10.02;;;5.20;99.90;;;;;;5053798;28;20049;-68
2022/02/15 06:19:50;;;;;;;21.83;10.65;;;5.20;99.90;;;;;;5053413;28;20053;-68
2022/02/15 06:22:16;;;;;;;22.23;11.40;;;5.20;99.90;;;;;;5053348;28;20590;-68
2022/02/15 06:24:43;;;;;;;23.75;10.27;;;5.20;99.90;;;;;;5053006;28;20049;-68
2022/02/15 06:27:10;;;;;;;22.25;11.70;;;5.20;99.90;;;;;;5052984;28;20466;-68
2022/02/15 06:29:37;;;;;;;20.58;10.57;;;5.10;99.90;;;;;;5052232;28;20136;-68
2022/02/15 06:32:05;;;;;;;24.27;11.32;;;5.10;99.90;;;;;;5053036;28;20084;-68
2022/02/15 06:34:32;;;;;;;21.00;10.93;;;5.20;99.90;;;;;;5052900;28;20128;-68
2022/02/15 06:37:00;;;;;;;18.92;9.88;;;5.20;99.90;;;;;;5052886;28;20063;-68
2022/02/15 06:39:27;;;;;;;21.92;10.73;;;5.20;99.90;;;;;;5052789;28;20088;-68
2022/02/15 06:41:54;;;;;;;18.48;9.82;;;5.30;99.90;;;;;;5052734;28;20049;-68
2022/02/15 06:44:21;;;;;;;19.73;11.15;;;5.30;99.90;;;;;;5052668;28;20080;-68
2022/02/15 06:46:48;;;;;;;20.73;10.45;;;5.40;99.90;;;;;;5052656;28;20135;-68
2022/02/15 06:49:15;;;;;;;21.52;9.88;;;5.40;99.90;;;;;;5052749;28;20048;-68
2022/02/15 06:51:42;;;;;;;20.00;10.02;;;5.40;99.90;;;;;;5052685;28;20135;-68
2022/02/15 06:54:10;;;;;;;24.02;10.68;;;5.40;99.90;;;;;;5052541;28;20139;-68
2022/02/15 06:56:38;;;;;;;21.60;10.40;;;5.40;99.90;;;;;;5052316;28;20098;-68
2022/02/15 06:59:05;;;;;;;21.13;10.50;;;5.40;99.90;;;;;;5052807;28;20143;-68
2022/02/15 07:01:32;;;;;;;21.05;11.50;;;5.40;99.90;;;;;;5052630;28;20052;-68
2022/02/15 07:03:59;;;;;;;26.50;11.13;;;5.40;99.90;;;;;;5052987;28;20143;-68
2022/02/15 07:06:26;;;;;;;23.38;11.25;;;5.40;99.90;;;;;;5052284;28;20547;-68
2022/02/15 07:08:53;;;;;;;20.75;10.95;;;5.40;99.90;;;;;;5052562;28;20106;-68
2022/02/15 07:11:21;;;;;;;21.77;10.57;;;5.50;99.90;;;;;;5052531;28;20091;-68
2022/02/15 07:13:50;;;;;;;23.92;10.90;;;5.50;99.90;;;;;;5052648;28;20056;-69
2022/02/15 07:16:17;;;;;;;20.65;10.40;;;5.50;99.90;;;;;;5052679;28;20480;-68
2022/02/15 07:18:44;;;;;;;20.48;9.27;;;5.50;99.90;;;;;;5052815;28;20136;-68
2022/02/15 07:21:12;;;;;;;22.65;10.52;;;5.60;99.90;;;;;;5052437;28;20574;-68
2022/02/15 07:23:39;;;;;;;18.23;9.75;;;5.50;99.90;;;;;;5052451;28;20132;-68
2022/02/15 07:26:06;;;;;;;18.77;9.50;;;5.50;99.90;;;;;;5052850;28;20045;-68
2022/02/15 07:28:34;;;;;;;21.65;10.48;;;5.60;99.90;;;;;;5052376;28;20084;-68
2022/02/15 07:31:01;;;;;;;20.10;10.23;;;5.60;99.90;;;;;;5052382;28;20131;-68
2022/02/15 07:33:28;;;;;;;20.25;10.00;;;5.60;99.90;;;;;;5052042;28;20080;-68
2022/02/15 07:35:55;;;;;;;21.15;10.30;;;5.70;99.90;;;;;;5052064;28;20073;-68
2022/02/15 07:38:22;;;;;;;21.98;11.27;;;5.70;99.90;;;;;;5052305;28;20136;-68
2022/02/15 07:40:49;;;;;;;20.13;9.98;;;5.70;99.90;;;;;;5052011;28;20132;-68
2022/02/15 07:43:16;;;;;;;17.33;10.25;;;5.70;99.90;;;;;;5051915;28;20135;-68
2022/02/15 07:45:44;;;;;;;20.77;11.20;;;5.70;99.90;;;;;;5051676;28;20084;-68
2022/02/15 07:48:11;;;;;;;19.73;11.25;;;5.80;99.90;;;;;;5051811;28;20131;-68
2022/02/15 07:50:40;;;;;;;21.02;10.32;;;5.80;99.90;;;;;;5052346;28;20081;-68
2022/02/15 07:53:07;;;;;;;23.13;12.05;;;5.90;99.90;;;;;;5052263;28;20140;-68
2022/02/15 07:55:34;;;;;;;21.88;11.18;;;5.90;99.90;;;;;;5051589;28;20136;-68
2022/02/15 07:58:01;;;;;;;25.38;11.82;;;5.90;99.90;;;;;;5052033;28;20139;-68
2022/02/15 08:00:28;;;;;;;21.58;11.35;;;5.90;99.90;;;;;;5051624;28;20492;-68
2022/02/15 08:02:56;;;;;;;21.45;11.20;;;6.00;99.90;;;;;;5051567;28;20067;-68
2022/02/15 08:05:24;;;;;;;22.75;11.75;;;6.00;99.90;;;;;;5051506;28;20084;-68
2022/02/15 08:07:53;;;;;;;21.77;10.85;;;6.00;99.90;;;;;;5051759;28;20128;-68
2022/02/15 08:10:20;;;;;;;20.15;11.70;;;6.00;99.90;;;;;;5051744;28;20045;-68
2022/02/15 08:12:53;;;;;;;21.60;10.75;;;6.00;99.90;;;;;;5051566;28;20498;-68
2022/02/15 08:15:20;;;;;;;19.88;10.20;;;6.00;99.90;;;;;;5052243;28;20396;-68
2022/02/15 08:17:47;;;;;;;26.95;11.80;;;6.00;99.90;;;;;;5051688;28;20132;-68
2022/02/15 08:20:15;;;;;;;18.88;10.63;;;6.10;99.90;;;;;;5051748;28;20581;-68
2022/02/15 08:22:42;;;;;;;22.05;12.02;;;6.10;99.90;;;;;;5051673;28;20132;-68
2022/02/15 08:25:09;;;;;;;22.05;11.50;;;6.20;99.90;;;;;;5051082;28;20049;-68
2022/02/15 08:27:36;;;;;;;18.20;11.20;;;6.20;99.90;;;;;;5051362;28;20128;-68
2022/02/15 08:30:04;;;;;;;19.73;10.63;;;6.20;99.90;;;;;;5051335;28;20468;-68
2022/02/15 08:32:31;;;;;;;19.58;10.38;;;6.20;99.90;;;;;;5051319;28;20085;-68
2022/02/15 08:34:58;;;;;;;22.40;11.02;;;6.20;99.90;;;;;;5051008;28;20053;-68
2022/02/15 08:37:26;;;;;;;24.85;10.82;;;6.30;99.90;;;;;;5051172;28;20140;-69
2022/02/15 08:39:53;;;;;;;18.73;9.98;;;6.30;99.90;;;;;;5051111;28;20556;-68
2022/02/15 08:42:20;;;;;;;18.50;9.63;;;6.30;99.90;;;;;;5051591;28;20133;-68
2022/02/15 08:44:49;;;;;;;18.63;9.43;;;6.30;99.90;;;;;;5050998;28;20144;-68
2022/02/15 08:47:16;;;;;;;19.48;8.75;;;6.40;99.90;;;;;;5051092;28;20041;-68
2022/02/15 08:49:43;;;;;;;18.90;10.20;;;6.50;99.90;;;;;;5053612;28;20056;-68
2022/02/15 08:52:10;;;;;;;19.08;9.73;;;6.50;99.90;;;;;;5052651;28;20140;-68
2022/02/15 08:54:38;;;;;;;17.30;9.63;;;6.70;99.90;;;;;;5054518;28;20139;-68
2022/02/15 08:57:06;;;;;;;15.07;8.77;;;6.80;99.90;;;;;;5054891;28;20045;-68
2022/02/15 08:59:33;;;;;;;14.93;8.57;;;6.80;99.90;;;;;;5054821;28;20052;-68
2022/02/15 09:02:00;;;;;;;14.93;8.38;;;6.90;99.90;;;;;;5054793;28;20049;-68
2022/02/15 09:04:27;;;;;;;14.10;7.88;;;7.10;99.90;;;;;;5054603;28;20139;-68
2022/02/15 09:06:54;;;;;;;13.80;7.85;;;7.00;99.90;;;;;;5054644;28;20107;-68
2022/02/15 09:09:21;;;;;;;14.13;8.18;;;7.20;99.90;;;;;;5054992;28;20055;-68
2022/02/15 09:11:49;;;;;;;12.15;7.22;;;7.20;99.90;;;;;;5054760;28;20131;-68
2022/02/15 09:14:17;;;;;;;15.27;7.25;;;7.30;99.90;;;;;;5054658;28;20128;-68
2022/02/15 09:16:45;;;;;;;12.55;6.40;;;7.60;99.90;;;;;;5054296;28;20490;-68
2022/02/15 09:19:12;;;;;;;11.40;5.65;;;7.40;99.90;;;;;;5054474;28;20052;-68
2022/02/15 09:21:39;;;;;;;11.85;6.18;;;7.50;99.90;;;;;;5054484;28;20233;-68
2022/02/15 09:24:09;;;;;;;12.43;5.43;;;7.60;99.90;;;;;;5054409;28;20061;-68
2022/02/15 09:26:36;;;;;;;11.23;5.70;;;7.60;99.90;;;;;;5054522;28;20053;-68
2022/02/15 09:29:04;;;;;;;11.38;5.53;;;7.50;99.90;;;;;;5054770;28;20055;-68
2022/02/15 09:31:31;;;;;;;11.45;5.32;;;7.50;99.90;;;;;;5054375;28;20075;-68
2022/02/15 09:33:58;;;;;;;9.98;5.22;;;7.60;99.90;;;;;;5054341;28;20137;-68
2022/02/15 09:36:26;;;;;;;9.70;4.00;;;7.70;99.90;;;;;;5053933;28;20045;-68
2022/02/15 09:38:53;;;;;;;10.45;4.32;;;7.70;99.90;;;;;;5054418;28;20131;-68
2022/02/15 09:41:22;;;;;;;9.52;4.53;;;7.90;99.90;;;;;;5054281;28;20135;-68
2022/02/15 09:43:49;;;;;;;10.20;3.40;;;7.80;99.90;;;;;;5054093;28;20310;-68
2022/02/15 09:46:18;;;;;;;7.15;3.88;;;8.00;99.90;;;;;;5053849;28;20131;-68
2022/02/15 09:48:46;;;;;;;6.35;3.25;;;8.20;99.90;;;;;;5053875;28;20532;-68
2022/02/15 09:51:18;;;;;;;7.03;3.17;;;8.10;99.90;;;;;;5054022;28;20141;-68
2022/02/15 09:53:45;;;;;;;9.60;3.00;;;8.10;99.90;;;;;;5054315;28;20136;-68
2022/02/15 09:56:12;;;;;;;5.72;3.10;;;8.10;99.90;;;;;;5053689;28;20044;-68
2022/02/15 09:58:39;;;;;;;6.65;3.30;;;8.50;99.90;;;;;;5054181;28;20059;-68
2022/02/15 10:01:06;;;;;;;7.18;2.60;;;8.90;99.90;;;;;;5053491;28;20129;-68
2022/02/15 10:03:35;;;;;;;6.80;2.83;;;9.20;99.90;;;;;;5053026;28;20136;-68
2022/02/15 10:06:11;;;;;;;7.22;3.00;;;9.80;99.90;;;;;;5052540;28;20049;-68
2022/02/15 10:08:39;;;;;;;6.00;2.20;;;10.60;99.90;;;;;;5053558;28;20572;-68
2022/02/15 10:11:09;;;;;;;5.22;2.42;;;10.50;99.90;;;;;;5053630;28;20049;-68
2022/02/15 10:13:43;;;;;;;5.15;2.63;;;10.40;99.90;;;;;;5053354;28;20483;-68
2022/02/15 10:16:09;;;;;;;5.47;2.55;;;9.90;99.90;;;;;;5053147;28;20048;-68
2022/02/15 10:18:38;;;;;;;7.30;2.80;;;9.40;99.90;;;;;;5053474;28;20087;-68
2022/02/15 10:21:05;;;;;;;6.90;3.35;;;9.10;99.90;;;;;;5053016;28;20136;-68
2022/02/15 10:23:34;;;;;;;7.10;2.70;;;8.80;99.90;;;;;;5053178;28;20497;-68
2022/02/15 10:26:03;;;;;;;5.55;2.50;;;8.70;99.90;;;;;;5053118;28;20518;-68
2022/02/15 10:28:33;;;;;;;8.57;2.97;;;8.40;99.90;;;;;;5053058;28;20059;-68
2022/02/15 10:31:02;;;;;;;4.97;2.35;;;8.50;99.90;;;;;;5053225;28;20512;-68
2022/02/15 10:33:30;;;;;;;7.38;2.90;;;8.50;99.90;;;;;;5053180;28;20076;-68
2022/02/15 10:36:00;;;;;;;6.05;2.60;;;8.60;99.90;;;;;;5052904;28;20136;-68
2022/02/15 10:38:32;;;;;;;7.18;2.80;;;8.70;99.90;;;;;;5052979;28;20132;-68
2022/02/15 10:41:01;;;;;;;5.95;2.70;;;8.60;99.90;;;;;;5052719;28;20131;-68
2022/02/15 10:43:29;;;;;;;6.63;3.47;;;8.50;99.90;;;;;;5053119;28;20141;-68
2022/02/15 10:45:56;;;;;;;6.95;2.90;;;8.60;99.90;;;;;;5052754;28;20584;-68
2022/02/15 10:48:32;;;;;;;6.03;2.95;;;8.80;99.90;;;;;;5052568;28;20053;-68
2022/02/15 10:51:01;;;;;;;6.35;2.65;;;9.20;99.90;;;;;;5052748;28;20059;-68
2022/02/15 10:53:30;;;;;;;7.60;3.30;;;9.10;99.90;;;;;;5052560;28;20140;-68
2022/02/15 10:55:58;;;;;;;6.22;2.80;;;9.20;99.90;;;;;;5052379;28;20452;-68
2022/02/15 10:58:25;;;;;;;7.20;3.17;;;9.00;99.90;;;;;;5052777;28;20492;-68
2022/02/15 11:00:52;;;;;;;7.10;3.20;;;8.90;99.90;;;;;;5052715;28;20132;-68
2022/02/15 11:03:21;;;;;;;9.45;3.25;;;8.70;99.90;;;;;;5052664;28;20129;-67
2022/02/15 11:05:49;;;;;;;7.07;3.20;;;9.00;99.90;;;;;;5052504;28;20045;-67
2022/02/15 11:08:20;;;;;;;7.07;3.53;;;8.90;99.90;;;;;;5052596;28;20200;-67
2022/02/15 11:10:58;;;;;;;9.02;3.75;;;8.70;99.90;;;;;;5052628;28;20128;-67
2022/02/15 11:13:25;;;;;;;7.35;3.70;;;8.70;99.90;;;;;;5052594;28;20089;-67
2022/02/15 11:15:55;;;;;;;8.10;3.97;;;8.50;99.90;;;;;;5051439;28;20128;-67
2022/02/15 11:18:30;;;;;;;6.32;3.30;;;8.50;99.90;;;;;;5052536;28;20053;-67
2022/02/15 11:20:58;;;;;;;7.13;3.45;;;8.50;99.90;;;;;;5052256;28;20049;-67
2022/02/15 11:23:28;;;;;;;6.55;3.33;;;8.70;99.90;;;;;;5052316;28;20110;-67
2022/02/15 11:26:07;;;;;;;9.45;3.58;;;8.80;99.90;;;;;;5052031;28;20055;-67
2022/02/15 11:28:35;;;;;;;7.68;3.53;;;8.80;99.90;;;;;;5052012;28;20048;-67
2022/02/15 11:31:04;;;;;;;7.45;3.13;;;8.90;99.90;;;;;;5052161;28;20238;-67
2022/02/15 11:33:32;;;;;;;8.82;3.35;;;9.00;99.90;;;;;;5052169;28;20053;-67
2022/02/15 11:36:06;;;;;;;7.30;3.70;;;9.00;99.90;;;;;;5052011;28;20107;-67
2022/02/15 11:38:36;;;;;;;9.57;3.40;;;8.80;99.90;;;;;;5053650;28;20502;-67
2022/02/15 11:41:04;;;;;;;11.82;3.63;;;8.70;99.90;;;;;;5055181;28;20147;-67
2022/02/15 11:43:33;;;;;;;10.20;3.15;;;8.70;99.90;;;;;;5052580;28;20140;-67
2022/02/15 11:46:02;;;;;;;10.25;3.35;;;8.50;99.90;;;;;;5051800;28;20053;-67
2022/02/15 11:48:41;;;;;;;7.07;3.38;;;8.40;99.90;;;;;;5051825;28;20055;-67
2022/02/15 11:51:18;;;;;;;8.35;3.83;;;8.30;99.90;;;;;;5052032;28;20402;-67
2022/02/15 11:53:46;;;;;;;8.30;3.33;;;8.20;99.90;;;;;;5051961;28;20045;-67
2022/02/15 11:56:15;;;;;;;10.10;3.50;;;8.30;99.90;;;;;;5052017;28;20480;-67
2022/02/15 11:58:45;;;;;;;6.93;2.80;;;8.20;99.90;;;;;;5051650;28;20056;-67
2022/02/15 12:01:22;;;;;;;7.85;3.50;;;8.10;99.90;;;;;;5051706;28;20144;-67
2022/02/15 12:03:50;;;;;;;7.93;3.70;;;8.10;99.90;;;;;;5051213;28;20052;-67
2022/02/15 12:06:17;;;;;;;9.63;3.90;;;8.20;99.90;;;;;;5031573;28;20075;-67
2022/02/15 12:08:55;;;;;;;7.93;3.83;;;8.20;99.90;;;;;;5031757;28;20137;-67
2022/02/15 12:11:33;;;;;;;7.35;3.70;;;8.30;99.90;;;;;;5031598;28;20129;-66
2022/02/15 12:14:10;;;;;;;13.18;4.07;;;8.40;99.90;;;;;;5031529;28;20049;-67
2022/02/15 12:16:44;;;;;;;8.10;3.63;;;8.40;99.90;;;;;;5031462;28;20053;-67
2022/02/15 12:19:19;;;;;;;7.15;3.50;;;8.50;99.90;;;;;;5031517;28;20137;-67
2022/02/15 12:21:47;;;;;;;6.53;3.42;;;8.50;99.90;;;;;;5031545;28;20128;-67
2022/02/15 12:24:15;;;;;;;7.10;3.50;;;8.50;99.90;;;;;;5031723;28;20058;-67
2022/02/15 12:26:42;;;;;;;9.55;4.43;;;8.60;99.90;;;;;;5032784;28;20425;-68
2022/02/15 12:29:11;;;;;;;8.68;4.10;;;8.70;99.90;;;;;;5037088;28;20140;-69
2022/02/15 12:31:38;;;;;;;9.52;3.97;;;8.60;99.90;;;;;;5036448;28;20585;-67
2022/02/15 12:34:06;;;;;;;7.68;3.80;;;8.40;99.90;;;;;;5035456;28;20089;-67
2022/02/15 12:36:34;;;;;;;6.72;3.03;;;8.30;99.90;;;;;;5035324;28;20057;-66
2022/02/15 12:39:03;;;;;;;12.20;4.43;;;8.00;99.90;;;;;;5035426;28;20608;-67
2022/02/15 12:41:35;;;;;;;12.07;4.20;;;7.00;99.90;;;;;;5035256;28;20148;-68
2022/02/15 12:44:03;;;;;;;9.40;4.18;;;6.80;99.90;;;;;;5035733;28;20581;-68
2022/02/15 12:46:30;;;;;;;10.43;4.13;;;6.30;99.90;;;;;;5034959;28;20141;-67
2022/02/15 12:48:58;;;;;;;9.55;4.22;;;6.20;99.90;;;;;;5035096;28;20414;-67
2022/02/15 12:51:29;;;;;;;8.63;3.92;;;6.10;99.90;;;;;;5035066;28;20053;-67
2022/02/15 12:53:57;;;;;;;9.38;4.75;;;6.10;99.90;;;;;;5049150;28;20114;-66
2022/02/15 12:56:26;;;;;;;6.88;3.85;;;6.20;99.90;;;;;;5053673;28;20060;-67